sensor_id;sensor_type;location;lat;lon;timestamp;pressure;altitude;pressure_sealevel;temperature
15607;BMP180;7865;50.918;4.510;2022-08-20T00:04:02;101101.00;;;17.60
15607;BMP180;7865;50.918;4.510;2022-08-20T00:09:07;101107.00;;;17.60
15607;BMP180;7865;50.918;4.510;2022-08-20T00:14:09;101095.00;;;17.50
15607;BMP180;7865;50.918;4.510;2022-08-20T00:19:11;101103.00;;;17.50
15607;BMP180;7865;50.918;4.510;2022-08-20T00:24:13;101104.00;;;17.40
15607;BMP180;7865;50.918;4.510;2022-08-20T00:29:15;101114.00;;;17.30
15607;BMP180;7865;50.918;4.510;2022-08-20T00:34:21;101114.00;;;17.30
15607;BMP180;7865;50.918;4.510;2022-08-20T00:39:23;101116.00;;;17.30
15607;BMP180;7865;50.918;4.510;2022-08-20T00:44:25;101110.00;;;17.20
15607;BMP180;7865;50.918;4.510;2022-08-20T00:49:31;101109.00;;;17.10
15607;BMP180;7865;50.918;4.510;2022-08-20T00:59:45;101110.00;;;16.80
15607;BMP180;7865;50.918;4.510;2022-08-20T01:04:48;101104.00;;;16.90
15607;BMP180;7865;50.918;4.510;2022-08-20T01:09:55;101094.00;;;16.90
15607;BMP180;7865;50.918;4.510;2022-08-20T01:15:01;101099.00;;;17.00
15607;BMP180;7865;50.918;4.510;2022-08-20T01:20:12;101106.00;;;16.90
15607;BMP180;7865;50.918;4.510;2022-08-20T01:25:21;101105.00;;;16.80
15607;BMP180;7865;50.918;4.510;2022-08-20T01:30:28;101105.00;;;16.80
15607;BMP180;7865;50.918;4.510;2022-08-20T01:35:40;101096.00;;;16.60
15607;BMP180;7865;50.918;4.510;2022-08-20T01:40:58;101093.00;;;16.50
15607;BMP180;7865;50.918;4.510;2022-08-20T01:46:02;101111.00;;;16.40
15607;BMP180;7865;50.918;4.510;2022-08-20T01:51:07;101110.00;;;16.30
15607;BMP180;7865;50.918;4.510;2022-08-20T01:56:12;101109.00;;;16.30
15607;BMP180;7865;50.918;4.510;2022-08-20T02:01:25;101104.00;;;16.30
15607;BMP180;7865;50.918;4.510;2022-08-20T02:06:30;101096.00;;;16.20
15607;BMP180;7865;50.918;4.510;2022-08-20T02:11:34;101100.00;;;16.00
15607;BMP180;7865;50.918;4.510;2022-08-20T02:16:38;101096.00;;;15.90
15607;BMP180;7865;50.918;4.510;2022-08-20T02:21:44;101106.00;;;15.80
15607;BMP180;7865;50.918;4.510;2022-08-20T02:26:47;101101.00;;;15.70
15607;BMP180;7865;50.918;4.510;2022-08-20T02:31:49;101095.00;;;15.60
15607;BMP180;7865;50.918;4.510;2022-08-20T02:37:11;101104.00;;;15.50
15607;BMP180;7865;50.918;4.510;2022-08-20T02:42:19;101103.00;;;15.40
15607;BMP180;7865;50.918;4.510;2022-08-20T02:47:21;101101.00;;;15.40
15607;BMP180;7865;50.918;4.510;2022-08-20T02:52:23;101104.00;;;15.40
15607;BMP180;7865;50.918;4.510;2022-08-20T02:57:27;101106.00;;;15.40
15607;BMP180;7865;50.918;4.510;2022-08-20T03:02:29;101107.00;;;15.50
15607;BMP180;7865;50.918;4.510;2022-08-20T03:07:42;101105.00;;;15.60
15607;BMP180;7865;50.918;4.510;2022-08-20T03:12:44;101105.00;;;15.70
15607;BMP180;7865;50.918;4.510;2022-08-20T03:17:49;101101.00;;;15.80
15607;BMP180;7865;50.918;4.510;2022-08-20T03:22:51;101101.00;;;15.80
15607;BMP180;7865;50.918;4.510;2022-08-20T03:27:54;101107.00;;;15.70
15607;BMP180;7865;50.918;4.510;2022-08-20T03:32:58;101102.00;;;15.70
15607;BMP180;7865;50.918;4.510;2022-08-20T03:38:00;101106.00;;;15.60
15607;BMP180;7865;50.918;4.510;2022-08-20T03:43:07;101108.00;;;15.70
15607;BMP180;7865;50.918;4.510;2022-08-20T03:48:12;101115.00;;;15.80
15607;BMP180;7865;50.918;4.510;2022-08-20T03:53:15;101117.00;;;15.70
15607;BMP180;7865;50.918;4.510;2022-08-20T03:58:17;101126.00;;;15.50
15607;BMP180;7865;50.918;4.510;2022-08-20T04:03:20;101120.00;;;15.40
15607;BMP180;7865;50.918;4.510;2022-08-20T04:08:25;101135.00;;;15.20
15607;BMP180;7865;50.918;4.510;2022-08-20T04:13:29;101134.00;;;15.10
15607;BMP180;7865;50.918;4.510;2022-08-20T04:18:31;101141.00;;;15.10
15607;BMP180;7865;50.918;4.510;2022-08-20T04:23:34;101142.00;;;15.00
15607;BMP180;7865;50.918;4.510;2022-08-20T04:28:36;101148.00;;;15.00
15607;BMP180;7865;50.918;4.510;2022-08-20T04:33:38;101146.00;;;15.00
15607;BMP180;7865;50.918;4.510;2022-08-20T04:38:42;101147.00;;;15.00
15607;BMP180;7865;50.918;4.510;2022-08-20T04:43:53;101151.00;;;15.00
15607;BMP180;7865;50.918;4.510;2022-08-20T04:48:56;101153.00;;;15.00
15607;BMP180;7865;50.918;4.510;2022-08-20T04:53:58;101162.00;;;15.00
15607;BMP180;7865;50.918;4.510;2022-08-20T04:59:01;101160.00;;;15.00
15607;BMP180;7865;50.918;4.510;2022-08-20T05:04:03;101157.00;;;15.00
15607;BMP180;7865;50.918;4.510;2022-08-20T05:09:05;101165.00;;;15.00
15607;BMP180;7865;50.918;4.510;2022-08-20T05:14:07;101166.00;;;15.10
15607;BMP180;7865;50.918;4.510;2022-08-20T05:19:12;101171.00;;;15.30
15607;BMP180;7865;50.918;4.510;2022-08-20T05:24:14;101171.00;;;15.50
15607;BMP180;7865;50.918;4.510;2022-08-20T05:29:17;101184.00;;;15.70
15607;BMP180;7865;50.918;4.510;2022-08-20T05:34:19;101184.00;;;15.90
15607;BMP180;7865;50.918;4.510;2022-08-20T05:39:21;101199.00;;;16.20
15607;BMP180;7865;50.918;4.510;2022-08-20T05:44:23;101208.00;;;16.40
15607;BMP180;7865;50.918;4.510;2022-08-20T05:49:25;101218.00;;;16.60
15607;BMP180;7865;50.918;4.510;2022-08-20T05:54:27;101226.00;;;16.80
15607;BMP180;7865;50.918;4.510;2022-08-20T05:59:29;101221.00;;;16.90
15607;BMP180;7865;50.918;4.510;2022-08-20T06:04:31;101224.00;;;17.00
15607;BMP180;7865;50.918;4.510;2022-08-20T06:09:35;101226.00;;;17.00
15607;BMP180;7865;50.918;4.510;2022-08-20T06:14:39;101225.00;;;17.20
15607;BMP180;7865;50.918;4.510;2022-08-20T06:19:43;101227.00;;;17.40
15607;BMP180;7865;50.918;4.510;2022-08-20T06:24:47;101230.00;;;17.50
15607;BMP180;7865;50.918;4.510;2022-08-20T06:29:50;101228.00;;;17.60
15607;BMP180;7865;50.918;4.510;2022-08-20T06:34:52;101221.00;;;17.70
15607;BMP180;7865;50.918;4.510;2022-08-20T06:39:54;101230.00;;;17.80
15607;BMP180;7865;50.918;4.510;2022-08-20T06:44:56;101224.00;;;17.90
15607;BMP180;7865;50.918;4.510;2022-08-20T06:50:00;101230.00;;;18.10
15607;BMP180;7865;50.918;4.510;2022-08-20T06:55:02;101230.00;;;18.30
15607;BMP180;7865;50.918;4.510;2022-08-20T07:00:11;101237.00;;;18.60
15607;BMP180;7865;50.918;4.510;2022-08-20T07:05:14;101241.00;;;18.90
15607;BMP180;7865;50.918;4.510;2022-08-20T07:10:19;101243.00;;;19.10
15607;BMP180;7865;50.918;4.510;2022-08-20T07:15:22;101244.00;;;19.20
15607;BMP180;7865;50.918;4.510;2022-08-20T07:20:27;101247.00;;;19.50
15607;BMP180;7865;50.918;4.510;2022-08-20T07:25:31;101251.00;;;19.90
15607;BMP180;7865;50.918;4.510;2022-08-20T07:30:34;101258.00;;;20.40
15607;BMP180;7865;50.918;4.510;2022-08-20T07:36:00;101262.00;;;20.20
15607;BMP180;7865;50.918;4.510;2022-08-20T07:41:09;101271.00;;;20.60
15607;BMP180;7865;50.918;4.510;2022-08-20T07:46:16;101276.00;;;20.80
15607;BMP180;7865;50.918;4.510;2022-08-20T07:51:22;101282.00;;;21.80
15607;BMP180;7865;50.918;4.510;2022-08-20T07:56:24;101282.00;;;22.30
15607;BMP180;7865;50.918;4.510;2022-08-20T08:01:30;101288.00;;;22.80
15607;BMP180;7865;50.918;4.510;2022-08-20T08:06:33;101282.00;;;23.20
15607;BMP180;7865;50.918;4.510;2022-08-20T08:11:39;101287.00;;;23.70
15607;BMP180;7865;50.918;4.510;2022-08-20T08:16:48;101293.00;;;24.00
15607;BMP180;7865;50.918;4.510;2022-08-20T08:21:50;101302.00;;;24.30
15607;BMP180;7865;50.918;4.510;2022-08-20T08:26:52;101294.00;;;24.60
15607;BMP180;7865;50.918;4.510;2022-08-20T08:31:54;101289.00;;;25.20
15607;BMP180;7865;50.918;4.510;2022-08-20T08:36:57;101300.00;;;25.60
15607;BMP180;7865;50.918;4.510;2022-08-20T08:42:25;101298.00;;;25.10
15607;BMP180;7865;50.918;4.510;2022-08-20T08:47:31;101298.00;;;25.60
15607;BMP180;7865;50.918;4.510;2022-08-20T08:52:38;101300.00;;;25.90
15607;BMP180;7865;50.918;4.510;2022-08-20T08:57:45;101307.00;;;26.90
15607;BMP180;7865;50.918;4.510;2022-08-20T09:03:09;101305.00;;;27.40
15607;BMP180;7865;50.918;4.510;2022-08-20T09:08:14;101291.00;;;27.00
15607;BMP180;7865;50.918;4.510;2022-08-20T09:13:18;101294.00;;;27.60
15607;BMP180;7865;50.918;4.510;2022-08-20T09:18:20;101309.00;;;26.30
15607;BMP180;7865;50.918;4.510;2022-08-20T09:23:22;101295.00;;;26.30
15607;BMP180;7865;50.918;4.510;2022-08-20T09:28:25;101299.00;;;25.20
15607;BMP180;7865;50.918;4.510;2022-08-20T09:33:33;101296.00;;;24.30
15607;BMP180;7865;50.918;4.510;2022-08-20T09:38:36;101294.00;;;24.10
15607;BMP180;7865;50.918;4.510;2022-08-20T09:43:39;101301.00;;;23.80
15607;BMP180;7865;50.918;4.510;2022-08-20T09:48:42;101292.00;;;23.60
15607;BMP180;7865;50.918;4.510;2022-08-20T09:53:44;101296.00;;;23.00
15607;BMP180;7865;50.918;4.510;2022-08-20T09:58:50;101289.00;;;22.40
15607;BMP180;7865;50.918;4.510;2022-08-20T10:03:53;101296.00;;;22.30
15607;BMP180;7865;50.918;4.510;2022-08-20T10:08:55;101295.00;;;23.00
15607;BMP180;7865;50.918;4.510;2022-08-20T10:13:57;101282.00;;;25.90
15607;BMP180;7865;50.918;4.510;2022-08-20T10:19:00;101286.00;;;25.20
15607;BMP180;7865;50.918;4.510;2022-08-20T10:24:03;101278.00;;;25.00
15607;BMP180;7865;50.918;4.510;2022-08-20T10:29:05;101284.00;;;26.30
15607;BMP180;7865;50.918;4.510;2022-08-20T10:34:07;101278.00;;;27.50
15607;BMP180;7865;50.918;4.510;2022-08-20T10:39:10;101273.00;;;27.00
15607;BMP180;7865;50.918;4.510;2022-08-20T10:44:12;101255.00;;;27.80
15607;BMP180;7865;50.918;4.510;2022-08-20T10:49:14;101263.00;;;29.00
15607;BMP180;7865;50.918;4.510;2022-08-20T10:54:17;101267.00;;;29.10
15607;BMP180;7865;50.918;4.510;2022-08-20T10:59:19;101243.00;;;28.80
15607;BMP180;7865;50.918;4.510;2022-08-20T11:04:21;101245.00;;;29.10
15607;BMP180;7865;50.918;4.510;2022-08-20T11:09:23;101250.00;;;30.00
15607;BMP180;7865;50.918;4.510;2022-08-20T11:14:35;101253.00;;;30.30
15607;BMP180;7865;50.918;4.510;2022-08-20T11:19:42;101249.00;;;30.60
15607;BMP180;7865;50.918;4.510;2022-08-20T11:24:44;101246.00;;;31.30
15607;BMP180;7865;50.918;4.510;2022-08-20T11:29:47;101254.00;;;28.80
15607;BMP180;7865;50.918;4.510;2022-08-20T11:34:51;101248.00;;;29.60
15607;BMP180;7865;50.918;4.510;2022-08-20T11:39:56;101253.00;;;29.00
15607;BMP180;7865;50.918;4.510;2022-08-20T11:44:59;101242.00;;;28.50
15607;BMP180;7865;50.918;4.510;2022-08-20T11:55:07;101234.00;;;29.50
15607;BMP180;7865;50.918;4.510;2022-08-20T12:00:14;101234.00;;;30.80
15607;BMP180;7865;50.918;4.510;2022-08-20T12:05:17;101237.00;;;31.10
15607;BMP180;7865;50.918;4.510;2022-08-20T12:10:20;101235.00;;;32.00
15607;BMP180;7865;50.918;4.510;2022-08-20T12:15:24;101235.00;;;31.20
15607;BMP180;7865;50.918;4.510;2022-08-20T12:20:27;101244.00;;;31.50
15607;BMP180;7865;50.918;4.510;2022-08-20T12:25:30;101249.00;;;29.30
15607;BMP180;7865;50.918;4.510;2022-08-20T12:30:32;101233.00;;;31.20
15607;BMP180;7865;50.918;4.510;2022-08-20T12:35:35;101233.00;;;32.10
15607;BMP180;7865;50.918;4.510;2022-08-20T12:40:37;101236.00;;;31.60
15607;BMP180;7865;50.918;4.510;2022-08-20T12:45:40;101238.00;;;32.60
15607;BMP180;7865;50.918;4.510;2022-08-20T12:50:43;101238.00;;;32.50
15607;BMP180;7865;50.918;4.510;2022-08-20T12:55:46;101241.00;;;32.50
15607;BMP180;7865;50.918;4.510;2022-08-20T13:00:51;101231.00;;;32.40
15607;BMP180;7865;50.918;4.510;2022-08-20T13:05:53;101237.00;;;30.80
15607;BMP180;7865;50.918;4.510;2022-08-20T13:10:55;101240.00;;;30.70
15607;BMP180;7865;50.918;4.510;2022-08-20T13:15:57;101240.00;;;29.80
15607;BMP180;7865;50.918;4.510;2022-08-20T13:20:59;101237.00;;;27.70
15607;BMP180;7865;50.918;4.510;2022-08-20T13:26:01;101227.00;;;30.30
15607;BMP180;7865;50.918;4.510;2022-08-20T13:31:06;101222.00;;;31.90
15607;BMP180;7865;50.918;4.510;2022-08-20T13:36:08;101226.00;;;32.90
15607;BMP180;7865;50.918;4.510;2022-08-20T13:41:10;101233.00;;;31.40
15607;BMP180;7865;50.918;4.510;2022-08-20T13:46:12;101231.00;;;30.20
15607;BMP180;7865;50.918;4.510;2022-08-20T13:51:14;101214.00;;;32.50
15607;BMP180;7865;50.918;4.510;2022-08-20T13:56:19;101241.00;;;30.00
15607;BMP180;7865;50.918;4.510;2022-08-20T14:01:22;101234.00;;;28.20
15607;BMP180;7865;50.918;4.510;2022-08-20T14:06:24;101232.00;;;32.20
15607;BMP180;7865;50.918;4.510;2022-08-20T14:11:26;101216.00;;;28.90
15607;BMP180;7865;50.918;4.510;2022-08-20T14:16:28;101216.00;;;27.10
15607;BMP180;7865;50.918;4.510;2022-08-20T14:21:36;101222.00;;;26.50
15607;BMP180;7865;50.918;4.510;2022-08-20T14:26:39;101207.00;;;26.50
15607;BMP180;7865;50.918;4.510;2022-08-20T14:31:41;101188.00;;;32.80
15607;BMP180;7865;50.918;4.510;2022-08-20T14:36:43;101224.00;;;29.90
15607;BMP180;7865;50.918;4.510;2022-08-20T14:41:48;101212.00;;;27.50
15607;BMP180;7865;50.918;4.510;2022-08-20T14:46:50;101203.00;;;27.40
15607;BMP180;7865;50.918;4.510;2022-08-20T14:51:52;101197.00;;;27.00
15607;BMP180;7865;50.918;4.510;2022-08-20T14:56:56;101200.00;;;29.80
15607;BMP180;7865;50.918;4.510;2022-08-20T15:02:05;101202.00;;;29.60
15607;BMP180;7865;50.918;4.510;2022-08-20T15:07:21;101205.00;;;27.00
15607;BMP180;7865;50.918;4.510;2022-08-20T15:12:23;101187.00;;;26.70
15607;BMP180;7865;50.918;4.510;2022-08-20T15:17:28;101179.00;;;27.00
15607;BMP180;7865;50.918;4.510;2022-08-20T15:22:30;101182.00;;;26.50
15607;BMP180;7865;50.918;4.510;2022-08-20T15:27:32;101194.00;;;26.20
15607;BMP180;7865;50.918;4.510;2022-08-20T15:32:37;101202.00;;;25.90
15607;BMP180;7865;50.918;4.510;2022-08-20T15:37:45;101201.00;;;25.80
15607;BMP180;7865;50.918;4.510;2022-08-20T15:42:48;101193.00;;;25.60
15607;BMP180;7865;50.918;4.510;2022-08-20T15:47:59;101199.00;;;25.30
15607;BMP180;7865;50.918;4.510;2022-08-20T15:53:07;101197.00;;;25.20
15607;BMP180;7865;50.918;4.510;2022-08-20T15:58:21;101196.00;;;25.20
15607;BMP180;7865;50.918;4.510;2022-08-20T16:08:42;101197.00;;;25.10
15607;BMP180;7865;50.918;4.510;2022-08-20T16:18:52;101184.00;;;24.80
15607;BMP180;7865;50.918;4.510;2022-08-20T16:23:54;101185.00;;;25.30
15607;BMP180;7865;50.918;4.510;2022-08-20T16:34:35;101185.00;;;24.50
15607;BMP180;7865;50.918;4.510;2022-08-20T16:45:18;101188.00;;;23.90
15607;BMP180;7865;50.918;4.510;2022-08-20T16:50:24;101195.00;;;23.80
15607;BMP180;7865;50.918;4.510;2022-08-20T16:55:27;101193.00;;;23.80
15607;BMP180;7865;50.918;4.510;2022-08-20T17:00:31;101191.00;;;23.90
15607;BMP180;7865;50.918;4.510;2022-08-20T17:05:48;101189.00;;;23.80
15607;BMP180;7865;50.918;4.510;2022-08-20T17:11:35;101192.00;;;23.60
15607;BMP180;7865;50.918;4.510;2022-08-20T17:16:46;101195.00;;;23.50
15607;BMP180;7865;50.918;4.510;2022-08-20T17:21:48;101187.00;;;23.40
15607;BMP180;7865;50.918;4.510;2022-08-20T17:27:03;101199.00;;;23.20
15607;BMP180;7865;50.918;4.510;2022-08-20T17:32:19;101200.00;;;22.90
15607;BMP180;7865;50.918;4.510;2022-08-20T17:37:24;101204.00;;;22.70
15607;BMP180;7865;50.918;4.510;2022-08-20T17:42:27;101208.00;;;22.60
15607;BMP180;7865;50.918;4.510;2022-08-20T17:47:33;101219.00;;;22.50
15607;BMP180;7865;50.918;4.510;2022-08-20T17:52:46;101208.00;;;22.50
15607;BMP180;7865;50.918;4.510;2022-08-20T17:57:53;101206.00;;;22.40
15607;BMP180;7865;50.918;4.510;2022-08-20T18:03:14;101211.00;;;22.30
15607;BMP180;7865;50.918;4.510;2022-08-20T18:19:15;101197.00;;;21.80
15607;BMP180;7865;50.918;4.510;2022-08-20T18:24:35;101193.00;;;21.60
15607;BMP180;7865;50.918;4.510;2022-08-20T18:29:41;101188.00;;;21.40
15607;BMP180;7865;50.918;4.510;2022-08-20T18:34:48;101195.00;;;21.20
15607;BMP180;7865;50.918;4.510;2022-08-20T18:40:03;101202.00;;;21.00
15607;BMP180;7865;50.918;4.510;2022-08-20T18:45:07;101204.00;;;20.70
15607;BMP180;7865;50.918;4.510;2022-08-20T18:50:17;101203.00;;;20.60
15607;BMP180;7865;50.918;4.510;2022-08-20T18:55:39;101206.00;;;20.30
15607;BMP180;7865;50.918;4.510;2022-08-20T19:00:47;101221.00;;;20.10
15607;BMP180;7865;50.918;4.510;2022-08-20T19:16:48;101226.00;;;19.30
15607;BMP180;7865;50.918;4.510;2022-08-20T19:21:53;101227.00;;;19.00
15607;BMP180;7865;50.918;4.510;2022-08-20T19:27:00;101223.00;;;18.80
15607;BMP180;7865;50.918;4.510;2022-08-20T19:32:06;101224.00;;;18.50
15607;BMP180;7865;50.918;4.510;2022-08-20T19:37:17;101227.00;;;18.30
15607;BMP180;7865;50.918;4.510;2022-08-20T19:42:41;101227.00;;;18.10
15607;BMP180;7865;50.918;4.510;2022-08-20T19:47:49;101231.00;;;18.00
15607;BMP180;7865;50.918;4.510;2022-08-20T19:53:28;101228.00;;;17.80
15607;BMP180;7865;50.918;4.510;2022-08-20T19:58:32;101234.00;;;17.70
15607;BMP180;7865;50.918;4.510;2022-08-20T20:03:35;101237.00;;;17.50
15607;BMP180;7865;50.918;4.510;2022-08-20T20:08:51;101234.00;;;17.40
15607;BMP180;7865;50.918;4.510;2022-08-20T20:14:00;101237.00;;;17.30
15607;BMP180;7865;50.918;4.510;2022-08-20T20:19:08;101233.00;;;17.20
15607;BMP180;7865;50.918;4.510;2022-08-20T20:24:29;101230.00;;;17.10
15607;BMP180;7865;50.918;4.510;2022-08-20T20:29:36;101233.00;;;17.00
15607;BMP180;7865;50.918;4.510;2022-08-20T20:34:39;101228.00;;;16.80
15607;BMP180;7865;50.918;4.510;2022-08-20T20:40:00;101222.00;;;16.80
15607;BMP180;7865;50.918;4.510;2022-08-20T20:45:17;101215.00;;;16.70
15607;BMP180;7865;50.918;4.510;2022-08-20T20:50:32;101220.00;;;16.60
15607;BMP180;7865;50.918;4.510;2022-08-20T21:04:41;101217.00;;;16.50
15607;BMP180;7865;50.918;4.510;2022-08-20T21:09:45;101219.00;;;16.40
15607;BMP180;7865;50.918;4.510;2022-08-20T21:14:47;101226.00;;;16.40
15607;BMP180;7865;50.918;4.510;2022-08-20T21:19:50;101233.00;;;16.30
15607;BMP180;7865;50.918;4.510;2022-08-20T21:24:52;101232.00;;;16.30
15607;BMP180;7865;50.918;4.510;2022-08-20T21:29:55;101237.00;;;16.20
15607;BMP180;7865;50.918;4.510;2022-08-20T21:34:57;101236.00;;;16.10
15607;BMP180;7865;50.918;4.510;2022-08-20T21:39:59;101239.00;;;16.10
15607;BMP180;7865;50.918;4.510;2022-08-20T21:45:02;101238.00;;;16.10
15607;BMP180;7865;50.918;4.510;2022-08-20T21:50:05;101237.00;;;16.10
15607;BMP180;7865;50.918;4.510;2022-08-20T21:55:08;101235.00;;;16.00
15607;BMP180;7865;50.918;4.510;2022-08-20T22:00:43;101242.00;;;16.00
15607;BMP180;7865;50.918;4.510;2022-08-20T22:05:42;101239.00;;;16.00
15607;BMP180;7865;50.918;4.510;2022-08-20T22:10:44;101241.00;;;16.00
15607;BMP180;7865;50.918;4.510;2022-08-20T22:15:47;101237.00;;;16.00
15607;BMP180;7865;50.918;4.510;2022-08-20T22:20:49;101238.00;;;16.10
15607;BMP180;7865;50.918;4.510;2022-08-20T22:25:51;101252.00;;;16.20
15607;BMP180;7865;50.918;4.510;2022-08-20T22:30:53;101245.00;;;16.20
15607;BMP180;7865;50.918;4.510;2022-08-20T22:35:56;101244.00;;;16.20
15607;BMP180;7865;50.918;4.510;2022-08-20T22:40:58;101241.00;;;16.10
15607;BMP180;7865;50.918;4.510;2022-08-20T22:46:00;101238.00;;;16.00
15607;BMP180;7865;50.918;4.510;2022-08-20T22:51:03;101242.00;;;15.90
15607;BMP180;7865;50.918;4.510;2022-08-20T22:56:05;101231.00;;;15.80
15607;BMP180;7865;50.918;4.510;2022-08-20T23:01:14;101245.00;;;15.70
15607;BMP180;7865;50.918;4.510;2022-08-20T23:06:17;101239.00;;;15.70
15607;BMP180;7865;50.918;4.510;2022-08-20T23:11:20;101244.00;;;15.80
15607;BMP180;7865;50.918;4.510;2022-08-20T23:16:23;101242.00;;;16.00
15607;BMP180;7865;50.918;4.510;2022-08-20T23:21:25;101234.00;;;16.10
15607;BMP180;7865;50.918;4.510;2022-08-20T23:26:27;101241.00;;;16.10
15607;BMP180;7865;50.918;4.510;2022-08-20T23:31:29;101241.00;;;16.10
15607;BMP180;7865;50.918;4.510;2022-08-20T23:36:32;101235.00;;;16.10
15607;BMP180;7865;50.918;4.510;2022-08-20T23:41:35;101242.00;;;16.10
15607;BMP180;7865;50.918;4.510;2022-08-20T23:46:37;101241.00;;;16.20
15607;BMP180;7865;50.918;4.510;2022-08-20T23:51:39;101238.00;;;16.20
15607;BMP180;7865;50.918;4.510;2022-08-20T23:56:41;101233.00;;;16.20
